sensor_id;sensor_type;location;lat;lon;timestamp;temperature;humidity
81935;DHT22;71405;47.674;-2.050;2024-03-17T00:00:21;18.40;63.40
81935;DHT22;71405;47.674;-2.050;2024-03-17T00:02:47;18.40;63.30
81935;DHT22;71405;47.674;-2.050;2024-03-17T00:05:13;18.40;63.10
81935;DHT22;71405;47.674;-2.050;2024-03-17T00:07:39;18.40;63.10
81935;DHT22;71405;47.674;-2.050;2024-03-17T00:10:06;18.40;62.50
81935;DHT22;71405;47.674;-2.050;2024-03-17T00:12:36;18.40;63.30
81935;DHT22;71405;47.674;-2.050;2024-03-17T00:15:02;18.40;62.80
81935;DHT22;71405;47.674;-2.050;2024-03-17T00:17:27;18.40;62.80
81935;DHT22;71405;47.674;-2.050;2024-03-17T00:19:53;18.40;62.80
81935;DHT22;71405;47.674;-2.050;2024-03-17T00:22:19;18.40;62.40
81935;DHT22;71405;47.674;-2.050;2024-03-17T00:24:45;18.40;62.70
81935;DHT22;71405;47.674;-2.050;2024-03-17T00:27:11;18.30;63.00
81935;DHT22;71405;47.674;-2.050;2024-03-17T00:29:37;18.40;62.90
81935;DHT22;71405;47.674;-2.050;2024-03-17T00:32:04;18.30;63.30
81935;DHT22;71405;47.674;-2.050;2024-03-17T00:34:30;18.30;62.80
81935;DHT22;71405;47.674;-2.050;2024-03-17T00:36:55;18.30;62.50
81935;DHT22;71405;47.674;-2.050;2024-03-17T00:39:21;18.30;62.70
81935;DHT22;71405;47.674;-2.050;2024-03-17T00:41:48;18.30;63.30
81935;DHT22;71405;47.674;-2.050;2024-03-17T00:44:14;18.40;63.00
81935;DHT22;71405;47.674;-2.050;2024-03-17T00:46:40;18.40;62.50
81935;DHT22;71405;47.674;-2.050;2024-03-17T00:49:09;18.30;62.80
81935;DHT22;71405;47.674;-2.050;2024-03-17T00:51:34;18.40;62.90
81935;DHT22;71405;47.674;-2.050;2024-03-17T00:54:00;18.40;62.60
81935;DHT22;71405;47.674;-2.050;2024-03-17T00:56:26;18.40;62.80
81935;DHT22;71405;47.674;-2.050;2024-03-17T00:58:51;18.30;63.10
81935;DHT22;71405;47.674;-2.050;2024-03-17T01:01:18;18.30;63.30
81935;DHT22;71405;47.674;-2.050;2024-03-17T01:03:45;18.30;64.00
81935;DHT22;71405;47.674;-2.050;2024-03-17T01:06:11;18.30;63.10
81935;DHT22;71405;47.674;-2.050;2024-03-17T01:08:36;18.30;62.40
81935;DHT22;71405;47.674;-2.050;2024-03-17T01:11:02;18.30;63.10
81935;DHT22;71405;47.674;-2.050;2024-03-17T01:13:28;18.30;63.00
81935;DHT22;71405;47.674;-2.050;2024-03-17T01:15:54;18.30;62.70
81935;DHT22;71405;47.674;-2.050;2024-03-17T01:18:20;18.30;62.70
81935;DHT22;71405;47.674;-2.050;2024-03-17T01:20:45;18.30;62.80
81935;DHT22;71405;47.674;-2.050;2024-03-17T01:23:11;18.30;63.00
81935;DHT22;71405;47.674;-2.050;2024-03-17T01:25:38;18.30;63.00
81935;DHT22;71405;47.674;-2.050;2024-03-17T01:28:04;18.30;63.20
81935;DHT22;71405;47.674;-2.050;2024-03-17T01:30:30;18.30;61.90
81935;DHT22;71405;47.674;-2.050;2024-03-17T01:32:56;18.30;62.40
81935;DHT22;71405;47.674;-2.050;2024-03-17T01:35:22;18.30;63.00
81935;DHT22;71405;47.674;-2.050;2024-03-17T01:37:48;18.30;62.90
81935;DHT22;71405;47.674;-2.050;2024-03-17T01:40:14;18.30;62.60
81935;DHT22;71405;47.674;-2.050;2024-03-17T01:42:41;18.30;62.80
81935;DHT22;71405;47.674;-2.050;2024-03-17T01:47:41;18.30;62.80
81935;DHT22;71405;47.674;-2.050;2024-03-17T01:50:08;18.30;62.90
81935;DHT22;71405;47.674;-2.050;2024-03-17T01:52:34;18.30;63.40
81935;DHT22;71405;47.674;-2.050;2024-03-17T01:55:02;18.30;63.10
81935;DHT22;71405;47.674;-2.050;2024-03-17T01:57:28;18.30;64.00
81935;DHT22;71405;47.674;-2.050;2024-03-17T01:59:55;18.30;63.40
81935;DHT22;71405;47.674;-2.050;2024-03-17T02:02:21;18.30;63.10
81935;DHT22;71405;47.674;-2.050;2024-03-17T02:04:47;18.30;62.70
81935;DHT22;71405;47.674;-2.050;2024-03-17T02:07:13;18.30;63.10
81935;DHT22;71405;47.674;-2.050;2024-03-17T02:09:40;18.30;62.20
81935;DHT22;71405;47.674;-2.050;2024-03-17T02:12:08;18.30;61.50
81935;DHT22;71405;47.674;-2.050;2024-03-17T02:14:33;18.30;62.30
81935;DHT22;71405;47.674;-2.050;2024-03-17T02:16:59;18.30;62.30
81935;DHT22;71405;47.674;-2.050;2024-03-17T02:19:25;18.30;62.70
81935;DHT22;71405;47.674;-2.050;2024-03-17T02:21:51;18.30;62.40
81935;DHT22;71405;47.674;-2.050;2024-03-17T02:24:16;18.30;62.60
81935;DHT22;71405;47.674;-2.050;2024-03-17T02:26:42;18.30;63.10
81935;DHT22;71405;47.674;-2.050;2024-03-17T02:29:07;18.30;63.20
81935;DHT22;71405;47.674;-2.050;2024-03-17T02:31:33;18.30;62.60
81935;DHT22;71405;47.674;-2.050;2024-03-17T02:33:59;18.30;62.90
81935;DHT22;71405;47.674;-2.050;2024-03-17T02:36:24;18.30;62.80
81935;DHT22;71405;47.674;-2.050;2024-03-17T02:38:50;18.30;62.10
81935;DHT22;71405;47.674;-2.050;2024-03-17T02:41:34;18.30;61.60
81935;DHT22;71405;47.674;-2.050;2024-03-17T02:44:00;18.30;62.50
81935;DHT22;71405;47.674;-2.050;2024-03-17T02:46:26;18.30;61.40
81935;DHT22;71405;47.674;-2.050;2024-03-17T02:48:53;18.30;62.80
81935;DHT22;71405;47.674;-2.050;2024-03-17T02:51:20;18.30;62.00
81935;DHT22;71405;47.674;-2.050;2024-03-17T02:53:47;18.30;62.10
81935;DHT22;71405;47.674;-2.050;2024-03-17T02:56:14;18.30;62.50
81935;DHT22;71405;47.674;-2.050;2024-03-17T02:58:44;18.30;63.10
81935;DHT22;71405;47.674;-2.050;2024-03-17T03:01:15;18.30;63.10
81935;DHT22;71405;47.674;-2.050;2024-03-17T03:03:41;18.30;63.00
81935;DHT22;71405;47.674;-2.050;2024-03-17T03:06:06;18.30;63.20
81935;DHT22;71405;47.674;-2.050;2024-03-17T03:08:38;18.30;62.90
81935;DHT22;71405;47.674;-2.050;2024-03-17T03:11:07;18.30;62.90
81935;DHT22;71405;47.674;-2.050;2024-03-17T03:13:40;18.30;62.60
81935;DHT22;71405;47.674;-2.050;2024-03-17T03:16:11;18.30;62.70
81935;DHT22;71405;47.674;-2.050;2024-03-17T03:18:38;18.20;62.50
81935;DHT22;71405;47.674;-2.050;2024-03-17T03:21:05;18.20;62.80
81935;DHT22;71405;47.674;-2.050;2024-03-17T03:23:31;18.30;62.50
81935;DHT22;71405;47.674;-2.050;2024-03-17T03:25:58;18.20;62.70
81935;DHT22;71405;47.674;-2.050;2024-03-17T03:28:25;18.30;62.10
81935;DHT22;71405;47.674;-2.050;2024-03-17T03:30:51;18.30;61.40
81935;DHT22;71405;47.674;-2.050;2024-03-17T03:33:18;18.30;61.70
81935;DHT22;71405;47.674;-2.050;2024-03-17T03:35:44;18.20;61.90
81935;DHT22;71405;47.674;-2.050;2024-03-17T03:38:11;18.20;62.40
81935;DHT22;71405;47.674;-2.050;2024-03-17T03:40:37;18.20;62.70
81935;DHT22;71405;47.674;-2.050;2024-03-17T03:43:02;18.20;62.50
81935;DHT22;71405;47.674;-2.050;2024-03-17T03:45:28;18.20;62.30
81935;DHT22;71405;47.674;-2.050;2024-03-17T03:47:54;18.20;62.90
81935;DHT22;71405;47.674;-2.050;2024-03-17T03:50:21;18.20;62.70
81935;DHT22;71405;47.674;-2.050;2024-03-17T03:52:47;18.20;62.50
81935;DHT22;71405;47.674;-2.050;2024-03-17T03:55:14;18.20;63.00
81935;DHT22;71405;47.674;-2.050;2024-03-17T03:57:41;18.20;63.00
81935;DHT22;71405;47.674;-2.050;2024-03-17T04:00:08;18.20;62.70
81935;DHT22;71405;47.674;-2.050;2024-03-17T04:02:43;18.20;63.20
81935;DHT22;71405;47.674;-2.050;2024-03-17T04:05:09;18.20;62.50
81935;DHT22;71405;47.674;-2.050;2024-03-17T04:07:35;18.20;62.20
81935;DHT22;71405;47.674;-2.050;2024-03-17T04:10:04;18.20;62.60
81935;DHT22;71405;47.674;-2.050;2024-03-17T04:12:30;18.20;62.80
81935;DHT22;71405;47.674;-2.050;2024-03-17T04:14:59;18.20;61.70
81935;DHT22;71405;47.674;-2.050;2024-03-17T04:17:25;18.20;62.90
81935;DHT22;71405;47.674;-2.050;2024-03-17T04:19:53;18.20;62.50
81935;DHT22;71405;47.674;-2.050;2024-03-17T04:22:20;18.20;61.80
81935;DHT22;71405;47.674;-2.050;2024-03-17T04:24:48;18.20;62.40
81935;DHT22;71405;47.674;-2.050;2024-03-17T04:27:19;18.20;62.90
81935;DHT22;71405;47.674;-2.050;2024-03-17T04:29:47;18.20;62.80
81935;DHT22;71405;47.674;-2.050;2024-03-17T04:32:13;18.20;62.50
81935;DHT22;71405;47.674;-2.050;2024-03-17T04:34:39;18.20;62.30
81935;DHT22;71405;47.674;-2.050;2024-03-17T04:37:05;18.20;62.20
81935;DHT22;71405;47.674;-2.050;2024-03-17T04:39:31;18.20;62.70
81935;DHT22;71405;47.674;-2.050;2024-03-17T04:41:57;18.20;62.50
81935;DHT22;71405;47.674;-2.050;2024-03-17T04:44:23;18.20;62.90
81935;DHT22;71405;47.674;-2.050;2024-03-17T04:46:48;18.20;61.90
81935;DHT22;71405;47.674;-2.050;2024-03-17T04:49:14;18.20;62.80
81935;DHT22;71405;47.674;-2.050;2024-03-17T04:51:40;18.20;62.70
81935;DHT22;71405;47.674;-2.050;2024-03-17T04:54:06;18.20;62.40
81935;DHT22;71405;47.674;-2.050;2024-03-17T04:56:32;18.20;62.40
81935;DHT22;71405;47.674;-2.050;2024-03-17T04:58:58;18.20;62.40
81935;DHT22;71405;47.674;-2.050;2024-03-17T05:01:24;18.20;62.70
81935;DHT22;71405;47.674;-2.050;2024-03-17T05:03:53;18.20;62.50
81935;DHT22;71405;47.674;-2.050;2024-03-17T05:06:19;18.20;62.90
81935;DHT22;71405;47.674;-2.050;2024-03-17T05:08:45;18.20;62.60
81935;DHT22;71405;47.674;-2.050;2024-03-17T05:11:11;18.10;63.50
81935;DHT22;71405;47.674;-2.050;2024-03-17T05:13:37;18.10;62.40
81935;DHT22;71405;47.674;-2.050;2024-03-17T05:16:06;18.10;63.10
81935;DHT22;71405;47.674;-2.050;2024-03-17T05:18:32;18.10;62.50
81935;DHT22;71405;47.674;-2.050;2024-03-17T05:21:07;18.10;62.00
81935;DHT22;71405;47.674;-2.050;2024-03-17T05:23:35;18.20;61.60
81935;DHT22;71405;47.674;-2.050;2024-03-17T05:26:02;18.10;61.90
81935;DHT22;71405;47.674;-2.050;2024-03-17T05:28:32;18.20;62.40
81935;DHT22;71405;47.674;-2.050;2024-03-17T05:30:58;18.20;62.90
81935;DHT22;71405;47.674;-2.050;2024-03-17T05:33:25;18.10;62.30
81935;DHT22;71405;47.674;-2.050;2024-03-17T05:35:55;18.20;62.50
81935;DHT22;71405;47.674;-2.050;2024-03-17T05:38:22;18.10;62.70
81935;DHT22;71405;47.674;-2.050;2024-03-17T05:40:59;18.10;62.20
81935;DHT22;71405;47.674;-2.050;2024-03-17T05:43:29;18.20;62.70
81935;DHT22;71405;47.674;-2.050;2024-03-17T05:46:00;18.10;62.60
81935;DHT22;71405;47.674;-2.050;2024-03-17T05:48:29;18.10;62.60
81935;DHT22;71405;47.674;-2.050;2024-03-17T05:50:55;18.20;63.00
81935;DHT22;71405;47.674;-2.050;2024-03-17T05:53:21;18.20;62.60
81935;DHT22;71405;47.674;-2.050;2024-03-17T05:55:50;18.10;62.20
81935;DHT22;71405;47.674;-2.050;2024-03-17T05:58:15;18.10;62.70
81935;DHT22;71405;47.674;-2.050;2024-03-17T06:00:41;18.10;62.30
81935;DHT22;71405;47.674;-2.050;2024-03-17T06:03:08;18.20;62.60
81935;DHT22;71405;47.674;-2.050;2024-03-17T06:05:35;18.20;63.20
81935;DHT22;71405;47.674;-2.050;2024-03-17T06:08:02;18.10;63.20
81935;DHT22;71405;47.674;-2.050;2024-03-17T06:10:29;18.10;63.00
81935;DHT22;71405;47.674;-2.050;2024-03-17T06:12:56;18.20;63.30
81935;DHT22;71405;47.674;-2.050;2024-03-17T06:15:23;18.10;62.50
81935;DHT22;71405;47.674;-2.050;2024-03-17T06:17:49;18.10;62.60
81935;DHT22;71405;47.674;-2.050;2024-03-17T06:20:18;18.10;62.90
81935;DHT22;71405;47.674;-2.050;2024-03-17T06:22:43;18.10;63.00
81935;DHT22;71405;47.674;-2.050;2024-03-17T06:25:11;18.10;62.70
81935;DHT22;71405;47.674;-2.050;2024-03-17T06:27:37;18.10;62.40
81935;DHT22;71405;47.674;-2.050;2024-03-17T06:30:03;18.10;63.00
81935;DHT22;71405;47.674;-2.050;2024-03-17T06:32:33;18.10;62.40
81935;DHT22;71405;47.674;-2.050;2024-03-17T06:35:01;18.10;61.70
81935;DHT22;71405;47.674;-2.050;2024-03-17T06:37:26;18.10;63.00
81935;DHT22;71405;47.674;-2.050;2024-03-17T06:39:52;18.10;62.10
81935;DHT22;71405;47.674;-2.050;2024-03-17T06:42:19;18.10;63.00
81935;DHT22;71405;47.674;-2.050;2024-03-17T06:44:44;18.10;62.50
81935;DHT22;71405;47.674;-2.050;2024-03-17T06:47:10;18.10;61.90
81935;DHT22;71405;47.674;-2.050;2024-03-17T06:49:36;18.10;63.00
81935;DHT22;71405;47.674;-2.050;2024-03-17T06:52:02;18.10;62.90
81935;DHT22;71405;47.674;-2.050;2024-03-17T06:54:28;18.10;62.40
81935;DHT22;71405;47.674;-2.050;2024-03-17T06:56:53;18.10;62.50
81935;DHT22;71405;47.674;-2.050;2024-03-17T06:59:19;18.10;62.60
81935;DHT22;71405;47.674;-2.050;2024-03-17T07:01:46;18.10;62.80
81935;DHT22;71405;47.674;-2.050;2024-03-17T07:04:15;18.10;63.30
81935;DHT22;71405;47.674;-2.050;2024-03-17T07:06:42;18.10;63.10
81935;DHT22;71405;47.674;-2.050;2024-03-17T07:09:08;18.10;62.80
81935;DHT22;71405;47.674;-2.050;2024-03-17T07:11:34;18.10;62.70
81935;DHT22;71405;47.674;-2.050;2024-03-17T07:14:00;18.10;63.20
81935;DHT22;71405;47.674;-2.050;2024-03-17T07:16:26;18.10;63.20
81935;DHT22;71405;47.674;-2.050;2024-03-17T07:18:52;18.10;63.20
81935;DHT22;71405;47.674;-2.050;2024-03-17T07:21:18;18.10;62.90
81935;DHT22;71405;47.674;-2.050;2024-03-17T07:23:44;18.10;62.80
81935;DHT22;71405;47.674;-2.050;2024-03-17T07:26:10;18.10;63.00
81935;DHT22;71405;47.674;-2.050;2024-03-17T07:28:36;18.10;63.00
81935;DHT22;71405;47.674;-2.050;2024-03-17T07:31:08;18.10;62.00
81935;DHT22;71405;47.674;-2.050;2024-03-17T07:33:34;18.10;62.70
81935;DHT22;71405;47.674;-2.050;2024-03-17T07:35:59;18.10;63.10
81935;DHT22;71405;47.674;-2.050;2024-03-17T07:38:27;18.10;62.70
81935;DHT22;71405;47.674;-2.050;2024-03-17T07:41:03;18.10;63.00
81935;DHT22;71405;47.674;-2.050;2024-03-17T07:43:31;18.10;63.10
81935;DHT22;71405;47.674;-2.050;2024-03-17T07:46:05;18.10;62.60
81935;DHT22;71405;47.674;-2.050;2024-03-17T07:48:32;18.10;63.00
81935;DHT22;71405;47.674;-2.050;2024-03-17T07:51:12;18.10;62.70
81935;DHT22;71405;47.674;-2.050;2024-03-17T07:53:43;18.10;63.20
81935;DHT22;71405;47.674;-2.050;2024-03-17T07:56:14;18.10;63.60
81935;DHT22;71405;47.674;-2.050;2024-03-17T07:58:41;18.10;63.20
81935;DHT22;71405;47.674;-2.050;2024-03-17T08:01:08;18.10;62.80
81935;DHT22;71405;47.674;-2.050;2024-03-17T08:03:36;18.10;62.40
81935;DHT22;71405;47.674;-2.050;2024-03-17T08:06:03;17.90;63.70
81935;DHT22;71405;47.674;-2.050;2024-03-17T08:08:30;17.80;63.10
81935;DHT22;71405;47.674;-2.050;2024-03-17T08:10:56;17.90;63.00
81935;DHT22;71405;47.674;-2.050;2024-03-17T08:13:22;18.00;62.40
81935;DHT22;71405;47.674;-2.050;2024-03-17T08:16:00;18.00;63.30
81935;DHT22;71405;47.674;-2.050;2024-03-17T08:18:27;18.10;63.60
81935;DHT22;71405;47.674;-2.050;2024-03-17T08:20:53;18.10;63.10
81935;DHT22;71405;47.674;-2.050;2024-03-17T08:23:22;18.10;62.20
81935;DHT22;71405;47.674;-2.050;2024-03-17T08:25:58;18.10;63.40
81935;DHT22;71405;47.674;-2.050;2024-03-17T08:28:25;18.10;63.90
81935;DHT22;71405;47.674;-2.050;2024-03-17T08:30:53;18.10;64.20
81935;DHT22;71405;47.674;-2.050;2024-03-17T08:33:19;18.10;64.10
81935;DHT22;71405;47.674;-2.050;2024-03-17T08:36:01;18.10;64.10
81935;DHT22;71405;47.674;-2.050;2024-03-17T08:38:28;18.10;64.00
81935;DHT22;71405;47.674;-2.050;2024-03-17T08:40:55;18.10;64.30
81935;DHT22;71405;47.674;-2.050;2024-03-17T08:43:21;18.10;64.70
81935;DHT22;71405;47.674;-2.050;2024-03-17T08:46:17;18.10;64.80
81935;DHT22;71405;47.674;-2.050;2024-03-17T08:48:44;18.10;64.70
81935;DHT22;71405;47.674;-2.050;2024-03-17T08:51:10;18.10;64.80
81935;DHT22;71405;47.674;-2.050;2024-03-17T08:53:36;18.10;65.20
81935;DHT22;71405;47.674;-2.050;2024-03-17T08:56:04;18.10;65.30
81935;DHT22;71405;47.674;-2.050;2024-03-17T08:58:31;18.10;64.90
81935;DHT22;71405;47.674;-2.050;2024-03-17T09:00:57;18.10;65.10
81935;DHT22;71405;47.674;-2.050;2024-03-17T09:03:23;18.10;64.90
81935;DHT22;71405;47.674;-2.050;2024-03-17T09:05:49;18.10;65.20
81935;DHT22;71405;47.674;-2.050;2024-03-17T09:08:18;18.10;64.60
81935;DHT22;71405;47.674;-2.050;2024-03-17T09:10:46;18.10;63.40
81935;DHT22;71405;47.674;-2.050;2024-03-17T09:13:17;18.10;62.60
81935;DHT22;71405;47.674;-2.050;2024-03-17T09:15:58;18.10;63.10
81935;DHT22;71405;47.674;-2.050;2024-03-17T09:18:28;18.10;62.60
81935;DHT22;71405;47.674;-2.050;2024-03-17T09:21:07;18.10;63.60
81935;DHT22;71405;47.674;-2.050;2024-03-17T09:23:34;18.10;64.10
81935;DHT22;71405;47.674;-2.050;2024-03-17T09:26:05;18.10;64.20
81935;DHT22;71405;47.674;-2.050;2024-03-17T09:28:32;18.10;64.60
81935;DHT22;71405;47.674;-2.050;2024-03-17T09:30:58;18.10;63.70
81935;DHT22;71405;47.674;-2.050;2024-03-17T09:33:25;18.10;63.40
81935;DHT22;71405;47.674;-2.050;2024-03-17T09:35:58;18.10;63.40
81935;DHT22;71405;47.674;-2.050;2024-03-17T09:38:24;18.10;64.00
81935;DHT22;71405;47.674;-2.050;2024-03-17T09:40:50;18.10;64.10
81935;DHT22;71405;47.674;-2.050;2024-03-17T09:43:21;18.20;64.40
81935;DHT22;71405;47.674;-2.050;2024-03-17T09:45:48;18.20;63.70
81935;DHT22;71405;47.674;-2.050;2024-03-17T09:48:15;18.20;65.20
81935;DHT22;71405;47.674;-2.050;2024-03-17T09:50:56;18.20;65.60
81935;DHT22;71405;47.674;-2.050;2024-03-17T09:53:26;18.20;66.50
81935;DHT22;71405;47.674;-2.050;2024-03-17T09:55:57;18.20;67.30
81935;DHT22;71405;47.674;-2.050;2024-03-17T09:58:23;18.20;67.80
81935;DHT22;71405;47.674;-2.050;2024-03-17T10:00:49;18.30;67.70
81935;DHT22;71405;47.674;-2.050;2024-03-17T10:03:47;18.30;67.30
81935;DHT22;71405;47.674;-2.050;2024-03-17T10:06:25;18.30;67.30
81935;DHT22;71405;47.674;-2.050;2024-03-17T10:08:55;18.30;67.60
81935;DHT22;71405;47.674;-2.050;2024-03-17T10:11:23;18.30;67.90
81935;DHT22;71405;47.674;-2.050;2024-03-17T10:14:08;18.30;66.30
81935;DHT22;71405;47.674;-2.050;2024-03-17T10:16:38;18.30;66.70
81935;DHT22;71405;47.674;-2.050;2024-03-17T10:19:10;18.30;67.10
81935;DHT22;71405;47.674;-2.050;2024-03-17T10:21:42;18.30;65.40
81935;DHT22;71405;47.674;-2.050;2024-03-17T10:26:43;18.30;66.20
81935;DHT22;71405;47.674;-2.050;2024-03-17T10:29:30;18.30;66.90
81935;DHT22;71405;47.674;-2.050;2024-03-17T10:31:58;18.30;66.60
81935;DHT22;71405;47.674;-2.050;2024-03-17T10:34:25;18.30;67.00
81935;DHT22;71405;47.674;-2.050;2024-03-17T10:39:39;18.30;66.70
81935;DHT22;71405;47.674;-2.050;2024-03-17T10:42:06;18.30;66.70
81935;DHT22;71405;47.674;-2.050;2024-03-17T10:44:34;18.30;66.80
81935;DHT22;71405;47.674;-2.050;2024-03-17T10:47:02;18.30;67.00
81935;DHT22;71405;47.674;-2.050;2024-03-17T10:49:33;18.30;66.80
81935;DHT22;71405;47.674;-2.050;2024-03-17T10:52:01;18.30;65.20
81935;DHT22;71405;47.674;-2.050;2024-03-17T10:54:28;18.30;66.10
81935;DHT22;71405;47.674;-2.050;2024-03-17T10:59:48;18.30;66.30
81935;DHT22;71405;47.674;-2.050;2024-03-17T11:04:44;18.30;66.40
81935;DHT22;71405;47.674;-2.050;2024-03-17T11:07:16;18.30;65.90
81935;DHT22;71405;47.674;-2.050;2024-03-17T11:09:43;18.30;66.10
81935;DHT22;71405;47.674;-2.050;2024-03-17T11:17:49;18.30;66.00
81935;DHT22;71405;47.674;-2.050;2024-03-17T11:20:25;18.30;65.50
81935;DHT22;71405;47.674;-2.050;2024-03-17T11:22:53;18.30;64.90
81935;DHT22;71405;47.674;-2.050;2024-03-17T11:28:09;18.30;65.40
81935;DHT22;71405;47.674;-2.050;2024-03-17T11:39:09;18.30;66.60
81935;DHT22;71405;47.674;-2.050;2024-03-17T11:41:44;18.30;66.40
81935;DHT22;71405;47.674;-2.050;2024-03-17T11:46:39;18.30;66.40
81935;DHT22;71405;47.674;-2.050;2024-03-17T11:49:06;18.30;66.70
81935;DHT22;71405;47.674;-2.050;2024-03-17T11:51:34;18.30;66.60
81935;DHT22;71405;47.674;-2.050;2024-03-17T11:54:01;18.30;66.80
81935;DHT22;71405;47.674;-2.050;2024-03-17T11:56:27;18.30;66.50
81935;DHT22;71405;47.674;-2.050;2024-03-17T11:59:07;18.30;66.10
81935;DHT22;71405;47.674;-2.050;2024-03-17T12:01:35;18.30;65.30
81935;DHT22;71405;47.674;-2.050;2024-03-17T12:04:01;18.30;64.70
81935;DHT22;71405;47.674;-2.050;2024-03-17T12:06:31;18.30;66.10
81935;DHT22;71405;47.674;-2.050;2024-03-17T12:09:22;18.30;65.70
81935;DHT22;71405;47.674;-2.050;2024-03-17T12:12:04;18.30;65.90
81935;DHT22;71405;47.674;-2.050;2024-03-17T12:14:31;18.30;65.90
81935;DHT22;71405;47.674;-2.050;2024-03-17T12:17:01;18.30;66.20
81935;DHT22;71405;47.674;-2.050;2024-03-17T12:19:27;18.30;66.20
81935;DHT22;71405;47.674;-2.050;2024-03-17T12:21:56;18.30;66.00
81935;DHT22;71405;47.674;-2.050;2024-03-17T12:24:26;18.30;65.80
81935;DHT22;71405;47.674;-2.050;2024-03-17T12:26:54;18.30;65.70
81935;DHT22;71405;47.674;-2.050;2024-03-17T12:29:33;18.30;65.40
81935;DHT22;71405;47.674;-2.050;2024-03-17T12:32:05;18.30;65.70
81935;DHT22;71405;47.674;-2.050;2024-03-17T12:34:35;18.30;65.70
81935;DHT22;71405;47.674;-2.050;2024-03-17T12:37:01;18.30;65.70
81935;DHT22;71405;47.674;-2.050;2024-03-17T12:39:29;18.30;65.50
81935;DHT22;71405;47.674;-2.050;2024-03-17T12:44:28;18.30;65.40
81935;DHT22;71405;47.674;-2.050;2024-03-17T12:47:04;18.30;65.90
81935;DHT22;71405;47.674;-2.050;2024-03-17T12:49:32;18.40;65.60
81935;DHT22;71405;47.674;-2.050;2024-03-17T12:52:00;18.40;65.70
81935;DHT22;71405;47.674;-2.050;2024-03-17T12:54:27;18.30;65.60
81935;DHT22;71405;47.674;-2.050;2024-03-17T12:57:06;18.30;65.40
81935;DHT22;71405;47.674;-2.050;2024-03-17T12:59:51;18.40;65.70
81935;DHT22;71405;47.674;-2.050;2024-03-17T13:02:44;18.30;65.90
81935;DHT22;71405;47.674;-2.050;2024-03-17T13:05:18;18.30;65.90
81935;DHT22;71405;47.674;-2.050;2024-03-17T13:07:44;18.30;65.50
81935;DHT22;71405;47.674;-2.050;2024-03-17T13:10:14;18.40;64.20
81935;DHT22;71405;47.674;-2.050;2024-03-17T13:12:40;18.30;64.90
81935;DHT22;71405;47.674;-2.050;2024-03-17T13:15:09;18.40;64.70
81935;DHT22;71405;47.674;-2.050;2024-03-17T13:17:36;18.40;64.70
81935;DHT22;71405;47.674;-2.050;2024-03-17T13:20:02;18.40;65.80
81935;DHT22;71405;47.674;-2.050;2024-03-17T13:22:29;18.40;65.60
81935;DHT22;71405;47.674;-2.050;2024-03-17T13:24:55;18.40;66.30
81935;DHT22;71405;47.674;-2.050;2024-03-17T13:27:20;18.50;66.40
81935;DHT22;71405;47.674;-2.050;2024-03-17T13:29:49;18.60;67.20
81935;DHT22;71405;47.674;-2.050;2024-03-17T13:32:15;18.60;67.00
81935;DHT22;71405;47.674;-2.050;2024-03-17T13:34:43;18.70;66.70
81935;DHT22;71405;47.674;-2.050;2024-03-17T13:37:08;18.70;66.50
81935;DHT22;71405;47.674;-2.050;2024-03-17T13:39:34;18.80;65.00
81935;DHT22;71405;47.674;-2.050;2024-03-17T13:42:00;18.80;65.50
81935;DHT22;71405;47.674;-2.050;2024-03-17T13:44:29;18.80;66.20
81935;DHT22;71405;47.674;-2.050;2024-03-17T13:46:59;18.70;66.20
81935;DHT22;71405;47.674;-2.050;2024-03-17T13:49:27;18.70;65.70
81935;DHT22;71405;47.674;-2.050;2024-03-17T13:51:54;18.80;65.60
81935;DHT22;71405;47.674;-2.050;2024-03-17T13:54:20;18.80;66.10
81935;DHT22;71405;47.674;-2.050;2024-03-17T13:56:50;18.80;66.20
81935;DHT22;71405;47.674;-2.050;2024-03-17T13:59:16;18.90;66.60
81935;DHT22;71405;47.674;-2.050;2024-03-17T14:01:45;18.90;65.80
81935;DHT22;71405;47.674;-2.050;2024-03-17T14:04:14;18.90;65.40
81935;DHT22;71405;47.674;-2.050;2024-03-17T14:06:41;18.90;66.40
81935;DHT22;71405;47.674;-2.050;2024-03-17T14:09:07;18.90;65.20
81935;DHT22;71405;47.674;-2.050;2024-03-17T14:11:36;18.90;65.20
81935;DHT22;71405;47.674;-2.050;2024-03-17T14:14:02;19.00;65.40
81935;DHT22;71405;47.674;-2.050;2024-03-17T14:16:30;19.00;65.60
81935;DHT22;71405;47.674;-2.050;2024-03-17T14:18:58;19.00;65.10
81935;DHT22;71405;47.674;-2.050;2024-03-17T14:21:23;19.00;65.10
81935;DHT22;71405;47.674;-2.050;2024-03-17T14:23:49;19.00;64.60
81935;DHT22;71405;47.674;-2.050;2024-03-17T14:26:15;19.10;64.40
81935;DHT22;71405;47.674;-2.050;2024-03-17T14:28:40;19.10;64.40
81935;DHT22;71405;47.674;-2.050;2024-03-17T14:31:06;19.10;64.10
81935;DHT22;71405;47.674;-2.050;2024-03-17T14:33:32;19.10;64.00
81935;DHT22;71405;47.674;-2.050;2024-03-17T14:35:57;19.10;64.30
81935;DHT22;71405;47.674;-2.050;2024-03-17T14:38:23;19.10;65.20
81935;DHT22;71405;47.674;-2.050;2024-03-17T14:40:52;19.10;65.60
81935;DHT22;71405;47.674;-2.050;2024-03-17T14:43:19;19.10;65.40
81935;DHT22;71405;47.674;-2.050;2024-03-17T14:45:45;19.10;65.30
81935;DHT22;71405;47.674;-2.050;2024-03-17T14:48:11;19.10;65.10
81935;DHT22;71405;47.674;-2.050;2024-03-17T14:50:39;19.10;65.30
81935;DHT22;71405;47.674;-2.050;2024-03-17T14:53:05;19.20;65.20
81935;DHT22;71405;47.674;-2.050;2024-03-17T14:55:31;19.20;65.50
81935;DHT22;71405;47.674;-2.050;2024-03-17T14:57:57;19.20;65.10
81935;DHT22;71405;47.674;-2.050;2024-03-17T15:00:22;19.20;65.20
81935;DHT22;71405;47.674;-2.050;2024-03-17T15:02:52;19.20;65.20
81935;DHT22;71405;47.674;-2.050;2024-03-17T15:05:18;19.20;65.30
81935;DHT22;71405;47.674;-2.050;2024-03-17T15:07:44;19.20;65.20
81935;DHT22;71405;47.674;-2.050;2024-03-17T15:10:11;19.20;65.50
81935;DHT22;71405;47.674;-2.050;2024-03-17T15:12:40;19.20;64.90
81935;DHT22;71405;47.674;-2.050;2024-03-17T15:15:09;19.20;65.20
81935;DHT22;71405;47.674;-2.050;2024-03-17T15:17:36;19.20;65.20
81935;DHT22;71405;47.674;-2.050;2024-03-17T15:20:02;19.30;63.80
81935;DHT22;71405;47.674;-2.050;2024-03-17T15:22:33;19.30;64.20
81935;DHT22;71405;47.674;-2.050;2024-03-17T15:24:59;19.30;64.70
81935;DHT22;71405;47.674;-2.050;2024-03-17T15:27:25;19.30;63.60
81935;DHT22;71405;47.674;-2.050;2024-03-17T15:29:50;19.30;63.70
81935;DHT22;71405;47.674;-2.050;2024-03-17T15:32:17;19.30;63.40
81935;DHT22;71405;47.674;-2.050;2024-03-17T15:34:43;19.30;63.50
81935;DHT22;71405;47.674;-2.050;2024-03-17T15:37:08;19.30;64.00
81935;DHT22;71405;47.674;-2.050;2024-03-17T15:39:34;19.30;63.70
81935;DHT22;71405;47.674;-2.050;2024-03-17T15:42:01;19.20;64.50
81935;DHT22;71405;47.674;-2.050;2024-03-17T15:44:27;19.10;64.90
81935;DHT22;71405;47.674;-2.050;2024-03-17T15:46:53;19.10;65.30
81935;DHT22;71405;47.674;-2.050;2024-03-17T15:49:18;19.00;65.10
81935;DHT22;71405;47.674;-2.050;2024-03-17T15:51:45;19.10;65.10
81935;DHT22;71405;47.674;-2.050;2024-03-17T15:54:11;19.10;65.50